Time;durP1;ratioP1;P1;durP2;ratioP2;P2;SDS_P1;SDS_P2;PMS_P1;PMS_P2;Temp;Humidity;BMP_temperature;BMP_pressure;BME280_temperature;BME280_humidity;BME280_pressure;Samples;Min_cycle;Max_cycle;Signal;HPM_P1;HPM_P2
2023/03/25 00:00:59;;;;;;;9.90;1.95;;;10.00;99.90;;;;;;4928575;29;20142;-69
2023/03/25 00:03:27;;;;;;;9.73;1.73;;;10.00;99.90;;;;;;4905636;29;20047;-70
2023/03/25 00:05:54;;;;;;;9.80;1.52;;;10.00;99.90;;;;;;4924153;29;20568;-69
2023/03/25 00:08:20;;;;;;;10.43;1.48;;;10.10;99.90;;;;;;4926090;29;20044;-68
2023/03/25 00:10:52;;;;;;;10.43;1.73;;;10.10;99.90;;;;;;4924951;29;20137;-69
2023/03/25 00:13:18;;;;;;;10.48;1.60;;;10.10;99.90;;;;;;4923314;29;20043;-69
2023/03/25 00:15:44;;;;;;;10.50;1.60;;;10.10;99.90;;;;;;4927056;29;20412;-69
2023/03/25 00:18:10;;;;;;;7.85;1.50;;;10.10;99.90;;;;;;4925575;29;20130;-69
2023/03/25 00:20:39;;;;;;;11.18;1.55;;;10.10;99.90;;;;;;4921006;29;20099;-69
2023/03/25 00:23:08;;;;;;;9.27;1.27;;;10.10;99.90;;;;;;4927519;29;20543;-69
2023/03/25 00:25:33;;;;;;;7.30;1.20;;;10.10;99.90;;;;;;4944064;29;20063;-68
2023/03/25 00:27:59;;;;;;;8.82;1.75;;;10.10;99.90;;;;;;4930874;29;20044;-69
2023/03/25 00:30:29;;;;;;;10.95;1.60;;;10.00;99.90;;;;;;4926595;29;20169;-70
2023/03/25 00:33:00;;;;;;;8.23;1.40;;;10.00;99.90;;;;;;4923868;29;20515;-69
2023/03/25 00:35:27;;;;;;;9.73;1.23;;;10.00;99.90;;;;;;4930832;29;20051;-69
2023/03/25 00:37:58;;;;;;;8.38;1.27;;;10.00;99.90;;;;;;4925749;29;20043;-69
2023/03/25 00:40:33;;;;;;;10.50;1.95;;;10.00;99.90;;;;;;4925337;29;20048;-68
2023/03/25 00:43:00;;;;;;;8.63;1.38;;;10.00;99.90;;;;;;4924121;29;20090;-67
2023/03/25 00:45:26;;;;;;;11.48;1.50;;;9.90;99.90;;;;;;4925283;29;20051;-69
2023/03/25 00:47:52;;;;;;;9.07;1.25;;;9.80;99.90;;;;;;4908399;29;20422;-68
2023/03/25 00:50:18;;;;;;;13.10;1.88;;;9.70;99.90;;;;;;4910481;29;20044;-69
2023/03/25 00:52:44;;;;;;;13.15;2.25;;;9.50;99.90;;;;;;4925497;29;20067;-70
2023/03/25 00:55:10;;;;;;;10.35;1.90;;;9.50;99.90;;;;;;4928103;29;20534;-71
2023/03/25 00:57:36;;;;;;;12.43;1.95;;;9.40;99.90;;;;;;4904145;29;20501;-70
2023/03/25 01:00:07;;;;;;;9.13;1.63;;;9.30;99.90;;;;;;4927425;29;20205;-71
2023/03/25 01:02:33;;;;;;;12.18;1.60;;;9.20;99.90;;;;;;4927182;29;20047;-71
2023/03/25 01:04:59;;;;;;;14.50;1.75;;;9.10;99.90;;;;;;4927171;29;20048;-71
2023/03/25 01:07:28;;;;;;;10.98;1.92;;;9.00;99.90;;;;;;4929249;29;20036;-70
2023/03/25 01:09:54;;;;;;;15.57;2.17;;;9.00;99.90;;;;;;4930252;29;20074;-68
2023/03/25 01:12:20;;;;;;;11.40;1.70;;;9.00;99.90;;;;;;4925176;29;20048;-71
2023/03/25 01:14:46;;;;;;;13.25;1.98;;;8.90;99.90;;;;;;4911421;29;20031;-71
2023/03/25 01:17:11;;;;;;;13.30;2.15;;;8.80;99.90;;;;;;4928710;29;20109;-70
2023/03/25 01:19:37;;;;;;;10.48;1.70;;;8.80;99.90;;;;;;4927538;29;20047;-71
2023/03/25 01:22:03;;;;;;;17.30;2.40;;;8.80;99.90;;;;;;4930662;29;20123;-70
2023/03/25 01:24:30;;;;;;;13.75;1.98;;;8.70;99.90;;;;;;4930716;29;20044;-70
2023/03/25 01:26:55;;;;;;;14.68;2.28;;;8.70;99.90;;;;;;4928375;29;20048;-70
2023/03/25 01:29:21;;;;;;;9.90;2.05;;;8.60;99.90;;;;;;4927665;29;20048;-71
2023/03/25 01:31:47;;;;;;;10.18;2.30;;;8.60;99.90;;;;;;4930258;29;20480;-70
2023/03/25 01:34:14;;;;;;;12.50;1.65;;;8.60;99.90;;;;;;4929933;29;20483;-71
2023/03/25 01:36:40;;;;;;;11.20;2.03;;;8.60;99.90;;;;;;4930783;29;20131;-70
2023/03/25 01:39:07;;;;;;;8.80;1.67;;;8.60;99.90;;;;;;4931589;29;20103;-70
2023/03/25 01:41:35;;;;;;;12.02;1.73;;;8.60;99.90;;;;;;4930816;29;20528;-71
2023/03/25 01:44:21;;;;;;;12.18;2.00;;;8.70;99.90;;;;;;4924088;29;20048;-70
2023/03/25 01:46:48;;;;;;;10.43;1.63;;;8.60;99.90;;;;;;4928051;29;20051;-70
2023/03/25 01:49:37;;;;;;;10.75;2.30;;;8.70;99.90;;;;;;4928632;29;20054;-69
2023/03/25 01:52:11;;;;;;;10.68;1.88;;;8.60;99.90;;;;;;4915574;29;20440;-71
2023/03/25 01:54:38;;;;;;;14.48;2.80;;;8.60;99.90;;;;;;4929564;29;20077;-69
2023/03/25 01:57:05;;;;;;;18.80;2.35;;;8.60;99.90;;;;;;4911447;29;20039;-70
2023/03/25 01:59:31;;;;;;;15.38;2.38;;;8.60;99.90;;;;;;4927678;29;20100;-69
2023/03/25 02:02:01;;;;;;;14.77;1.92;;;8.60;99.90;;;;;;4927983;29;20044;-69
2023/03/25 02:04:37;;;;;;;11.13;2.00;;;8.60;99.90;;;;;;4912831;29;20067;-70
2023/03/25 02:07:06;;;;;;;15.60;2.55;;;8.60;99.90;;;;;;4931731;29;20055;-70
2023/03/25 02:09:32;;;;;;;15.30;2.28;;;8.60;99.90;;;;;;4931414;29;20396;-70
2023/03/25 02:11:57;;;;;;;17.75;2.25;;;8.60;99.90;;;;;;4930294;29;20504;-69
2023/03/25 02:14:28;;;;;;;11.85;2.78;;;8.60;99.90;;;;;;4912901;29;20067;-69
2023/03/25 02:17:21;;;;;;;13.60;2.38;;;8.60;99.90;;;;;;4930144;29;20083;-69
2023/03/25 02:20:17;;;;;;;10.85;2.22;;;8.60;99.90;;;;;;4929384;29;20051;-70
2023/03/25 02:23:07;;;;;;;15.63;2.67;;;8.50;99.90;;;;;;4930698;29;20043;-70
2023/03/25 02:26:04;;;;;;;16.88;2.50;;;8.50;99.90;;;;;;4914062;29;20581;-69
2023/03/25 02:28:46;;;;;;;17.45;2.65;;;8.50;99.90;;;;;;4929464;29;20559;-69
2023/03/25 02:31:21;;;;;;;14.75;2.58;;;8.50;99.90;;;;;;4931872;29;20096;-69
2023/03/25 02:34:04;;;;;;;19.40;2.97;;;8.40;99.90;;;;;;4926854;29;20118;-69
2023/03/25 02:36:47;;;;;;;14.93;2.42;;;8.40;99.90;;;;;;4929050;29;20115;-69
2023/03/25 02:39:31;;;;;;;14.10;2.42;;;8.40;99.90;;;;;;4929242;29;20096;-69
2023/03/25 02:42:22;;;;;;;12.77;2.20;;;8.40;99.90;;;;;;4929002;29;20047;-69
2023/03/25 02:45:16;;;;;;;10.07;2.00;;;8.40;99.90;;;;;;4927245;29;20048;-69
2023/03/25 02:47:48;;;;;;;17.85;2.90;;;8.40;99.90;;;;;;4926651;29;20722;-69
2023/03/25 02:50:20;;;;;;;16.23;2.50;;;8.40;99.90;;;;;;4931448;29;20172;-69
2023/03/25 02:52:52;;;;;;;15.98;3.00;;;8.40;99.90;;;;;;4926969;29;20496;-68
2023/03/25 02:55:20;;;;;;;14.30;2.42;;;8.40;99.90;;;;;;4914464;29;20043;-69
2023/03/25 02:57:49;;;;;;;16.42;2.53;;;8.40;99.90;;;;;;4928083;29;20078;-69
2023/03/25 03:00:19;;;;;;;10.88;2.50;;;8.40;99.90;;;;;;4924081;29;20047;-69
2023/03/25 03:02:58;;;;;;;12.15;2.05;;;8.40;99.90;;;;;;4929302;29;20044;-69
2023/03/25 03:05:36;;;;;;;14.40;2.47;;;8.40;99.90;;;;;;4927581;29;20130;-69
2023/03/25 03:08:35;;;;;;;18.23;2.95;;;8.40;99.90;;;;;;4945364;29;20047;-70
2023/03/25 03:11:10;;;;;;;16.73;2.47;;;8.40;99.90;;;;;;4929582;29;20599;-69
2023/03/25 03:13:57;;;;;;;13.50;2.10;;;8.40;99.90;;;;;;4929264;29;20040;-69
2023/03/25 03:16:47;;;;;;;17.40;2.95;;;8.40;99.90;;;;;;4926294;29;20091;-69
2023/03/25 03:19:24;;;;;;;11.88;2.70;;;8.50;99.90;;;;;;4924147;29;20062;-69
2023/03/25 03:22:12;;;;;;;14.05;2.53;;;8.50;99.90;;;;;;4929440;29;20066;-69
2023/03/25 03:25:05;;;;;;;15.73;2.97;;;8.40;99.90;;;;;;4929489;29;20087;-69
2023/03/25 03:27:44;;;;;;;15.93;2.70;;;8.40;99.90;;;;;;4926341;29;20063;-69
2023/03/25 03:30:16;;;;;;;12.25;2.70;;;8.50;99.90;;;;;;4921978;29;20538;-69
2023/03/25 03:32:59;;;;;;;14.45;2.53;;;8.50;99.90;;;;;;4928353;29;20582;-69
2023/03/25 03:35:50;;;;;;;10.23;2.63;;;8.50;99.90;;;;;;4923039;29;20047;-68
2023/03/25 03:38:18;;;;;;;19.55;3.50;;;8.50;99.90;;;;;;4925085;29;20420;-69
2023/03/25 03:40:49;;;;;;;16.42;2.60;;;8.50;99.90;;;;;;4929815;29;20047;-69
2023/03/25 03:43:24;;;;;;;15.80;2.40;;;8.50;99.90;;;;;;4929896;29;20102;-68
2023/03/25 03:45:54;;;;;;;18.48;2.58;;;8.50;99.90;;;;;;4928054;29;20036;-69
2023/03/25 03:48:25;;;;;;;12.73;2.40;;;8.50;99.90;;;;;;4929045;29;20039;-69
2023/03/25 03:51:18;;;;;;;12.88;2.80;;;8.50;99.90;;;;;;4926383;29;20349;-69
2023/03/25 03:53:59;;;;;;;23.60;2.95;;;8.50;99.90;;;;;;4924408;29;20048;-70
2023/03/25 03:56:45;;;;;;;17.15;2.45;;;8.50;99.90;;;;;;4928758;29;20514;-69
2023/03/25 03:59:22;;;;;;;15.82;2.38;;;8.50;99.90;;;;;;4929886;29;20465;-69
2023/03/25 04:01:54;;;;;;;16.40;2.78;;;8.50;99.90;;;;;;4928464;29;20139;-69
2023/03/25 04:04:25;;;;;;;17.55;3.13;;;8.50;99.90;;;;;;4927699;29;20043;-69
2023/03/25 04:07:04;;;;;;;10.30;2.13;;;8.50;99.90;;;;;;4927932;29;20062;-70
2023/03/25 04:10:01;;;;;;;11.75;2.63;;;8.50;99.90;;;;;;4929602;29;20119;-70
2023/03/25 04:12:28;;;;;;;14.55;2.67;;;8.50;99.90;;;;;;4927807;29;20083;-70
2023/03/25 04:14:55;;;;;;;18.23;2.65;;;8.50;99.90;;;;;;4930374;29;20039;-70
2023/03/25 04:17:22;;;;;;;14.77;2.83;;;8.50;99.90;;;;;;4932097;29;20495;-69
2023/03/25 04:19:52;;;;;;;15.60;3.53;;;8.50;99.90;;;;;;4928070;29;20090;-70
2023/03/25 04:22:20;;;;;;;18.45;4.25;;;8.50;99.90;;;;;;4925789;29;20055;-69
2023/03/25 04:24:50;;;;;;;17.70;3.03;;;8.50;99.90;;;;;;4914849;29;20052;-71
2023/03/25 04:27:21;;;;;;;16.80;3.60;;;8.50;99.90;;;;;;4927520;29;20044;-70
2023/03/25 04:29:48;;;;;;;11.93;3.13;;;8.50;99.90;;;;;;4929382;29;20046;-70
2023/03/25 04:32:15;;;;;;;16.75;3.13;;;8.50;99.90;;;;;;4911636;29;20039;-70
2023/03/25 04:34:41;;;;;;;17.95;3.60;;;8.40;99.90;;;;;;4924894;29;20036;-70
2023/03/25 04:37:06;;;;;;;16.15;3.53;;;8.40;99.90;;;;;;4926764;29;20403;-70
2023/03/25 04:39:32;;;;;;;18.88;3.50;;;8.40;99.90;;;;;;4930120;29;20044;-70
2023/03/25 04:42:02;;;;;;;26.98;3.78;;;8.40;99.90;;;;;;4929024;29;20035;-71
2023/03/25 04:44:32;;;;;;;16.60;3.65;;;8.40;99.90;;;;;;4929089;29;20099;-70
2023/03/25 04:47:01;;;;;;;19.65;3.67;;;8.40;99.90;;;;;;4929946;29;20502;-70
2023/03/25 04:49:26;;;;;;;16.55;3.67;;;8.30;99.90;;;;;;4926530;29;20554;-70
2023/03/25 04:51:53;;;;;;;16.08;3.85;;;8.40;99.90;;;;;;4928480;29;20035;-70
2023/03/25 04:54:20;;;;;;;14.95;3.13;;;8.30;99.90;;;;;;4927984;29;20127;-69
2023/03/25 04:56:48;;;;;;;13.77;3.30;;;8.30;99.90;;;;;;4907956;29;20050;-70
2023/03/25 04:59:14;;;;;;;15.68;3.47;;;8.30;99.90;;;;;;4928832;29;20063;-69
2023/03/25 05:01:41;;;;;;;20.33;3.88;;;8.30;99.90;;;;;;4919107;29;20051;-70
2023/03/25 05:04:11;;;;;;;14.60;3.10;;;8.30;99.90;;;;;;4926522;29;20043;-70
2023/03/25 05:06:40;;;;;;;11.07;2.78;;;8.30;99.90;;;;;;4924083;29;20444;-71
2023/03/25 05:09:09;;;;;;;15.23;2.95;;;8.30;99.90;;;;;;4927625;29;20048;-70
2023/03/25 05:11:38;;;;;;;14.77;3.15;;;8.30;99.90;;;;;;4927103;29;20051;-71
2023/03/25 05:14:05;;;;;;;15.02;3.00;;;8.30;99.90;;;;;;4928799;29;20051;-71
2023/03/25 05:16:31;;;;;;;15.82;3.15;;;8.20;99.90;;;;;;4928718;29;20036;-70
2023/03/25 05:18:57;;;;;;;17.75;4.05;;;8.20;99.90;;;;;;4927942;29;20037;-69
2023/03/25 05:21:22;;;;;;;17.67;3.72;;;8.10;99.90;;;;;;4928730;29;20052;-71
2023/03/25 05:23:48;;;;;;;13.95;3.85;;;8.10;99.90;;;;;;4925300;29;20071;-70
2023/03/25 05:26:14;;;;;;;18.85;3.95;;;8.10;99.90;;;;;;4925437;29;20052;-69
2023/03/25 05:28:41;;;;;;;20.25;3.65;;;8.10;99.90;;;;;;4922550;29;20039;-70
2023/03/25 05:31:09;;;;;;;20.27;4.03;;;8.10;99.90;;;;;;4927171;29;20039;-70
2023/03/25 05:33:42;;;;;;;23.83;4.85;;;8.10;99.90;;;;;;4926018;29;20032;-70
2023/03/25 05:36:16;;;;;;;20.83;3.83;;;8.00;99.90;;;;;;4930136;29;20519;-70
2023/03/25 05:38:43;;;;;;;;;;;8.00;99.90;;;;;;4926485;29;20127;-70
2023/03/25 05:41:15;;;;;;;20.38;4.07;;;8.00;99.90;;;;;;4926348;29;19933;-71
2023/03/25 05:43:46;;;;;;;14.55;3.38;;;8.00;99.90;;;;;;4928085;29;20043;-70
2023/03/25 05:46:16;;;;;;;18.55;3.60;;;8.00;99.90;;;;;;4928196;29;20054;-70
2023/03/25 05:48:42;;;;;;;17.42;3.83;;;7.90;99.90;;;;;;4925617;29;20052;-70
2023/03/25 05:51:15;;;;;;;15.93;3.65;;;7.80;99.90;;;;;;4912452;29;20142;-70
2023/03/25 05:53:52;;;;;;;16.73;3.45;;;7.90;99.90;;;;;;4927208;29;20042;-69
2023/03/25 05:56:19;;;;;;;16.60;3.65;;;7.90;99.90;;;;;;4931179;29;20039;-70
2023/03/25 05:58:46;;;;;;;18.60;4.32;;;7.90;99.90;;;;;;4931647;29;20082;-70
2023/03/25 06:01:14;;;;;;;20.08;4.00;;;8.00;99.90;;;;;;4929347;29;20086;-69
2023/03/25 06:03:40;;;;;;;18.90;4.63;;;8.00;99.90;;;;;;4932391;29;20055;-70
2023/03/25 06:06:13;;;;;;;17.73;3.38;;;8.00;99.90;;;;;;4930203;29;20444;-70
2023/03/25 06:08:40;;;;;;;19.50;3.83;;;8.00;99.90;;;;;;4932005;29;20054;-71
2023/03/25 06:11:12;;;;;;;21.35;3.72;;;8.10;99.90;;;;;;4927222;29;20087;-71
2023/03/25 06:13:39;;;;;;;22.20;4.15;;;8.10;99.90;;;;;;4929111;29;20047;-70
2023/03/25 06:16:08;;;;;;;17.92;3.47;;;8.10;99.90;;;;;;4915119;29;20083;-70
2023/03/25 06:18:37;;;;;;;17.25;3.90;;;8.00;99.90;;;;;;4929717;29;20043;-71
2023/03/25 06:21:03;;;;;;;21.90;3.28;;;8.10;99.90;;;;;;4929948;29;20044;-70
2023/03/25 06:23:33;;;;;;;20.08;3.53;;;8.10;99.90;;;;;;4932027;29;20472;-69
2023/03/25 06:26:00;;;;;;;20.35;5.03;;;8.10;99.90;;;;;;4926642;29;20039;-69
2023/03/25 06:28:26;;;;;;;18.90;4.32;;;8.10;99.90;;;;;;4925788;29;20043;-68
2023/03/25 06:30:51;;;;;;;17.95;3.25;;;8.00;99.90;;;;;;4929931;29;20062;-70
2023/03/25 06:33:18;;;;;;;17.17;3.30;;;8.10;99.90;;;;;;4930435;29;20040;-70
2023/03/25 06:35:52;;;;;;;13.50;2.80;;;8.00;99.90;;;;;;4930563;29;20051;-70
2023/03/25 06:38:20;;;;;;;20.90;3.13;;;8.00;99.90;;;;;;4932506;29;20389;-70
2023/03/25 06:40:46;;;;;;;13.68;2.40;;;8.00;99.90;;;;;;4914008;29;20039;-70
2023/03/25 06:43:13;;;;;;;20.13;2.75;;;8.00;99.90;;;;;;4929652;29;20048;-70
2023/03/25 06:45:39;;;;;;;16.42;2.67;;;8.00;99.90;;;;;;4906341;29;20130;-70
2023/03/25 06:48:05;;;;;;;18.50;2.78;;;8.00;99.90;;;;;;4927293;29;20032;-70
2023/03/25 06:50:31;;;;;;;18.17;3.13;;;8.00;99.90;;;;;;4930444;29;20098;-71
2023/03/25 06:52:57;;;;;;;17.00;2.65;;;8.10;99.90;;;;;;4928815;29;20115;-70
2023/03/25 06:55:23;;;;;;;21.73;3.10;;;8.10;99.90;;;;;;4930937;29;20651;-70
2023/03/25 06:57:49;;;;;;;15.93;2.83;;;8.10;99.90;;;;;;4924748;29;20136;-70
2023/03/25 07:00:19;;;;;;;22.90;3.75;;;8.10;99.90;;;;;;4924975;29;20051;-70
2023/03/25 07:02:45;;;;;;;21.00;2.63;;;8.20;99.90;;;;;;4928085;29;20054;-70
2023/03/25 07:05:11;;;;;;;17.13;2.85;;;8.20;99.90;;;;;;4927943;29;20055;-70
2023/03/25 07:07:37;;;;;;;23.00;3.92;;;8.30;99.90;;;;;;4929686;29;20043;-70
2023/03/25 07:10:03;;;;;;;22.23;3.47;;;8.20;99.90;;;;;;4927373;29;20051;-70
2023/03/25 07:12:29;;;;;;;21.27;2.75;;;8.30;99.90;;;;;;4926452;29;20036;-70
2023/03/25 07:14:59;;;;;;;26.40;3.33;;;8.40;99.90;;;;;;4925431;29;20055;-70
2023/03/25 07:17:25;;;;;;;20.58;3.60;;;8.40;99.90;;;;;;4929727;29;20035;-71
2023/03/25 07:19:51;;;;;;;20.50;2.55;;;8.50;99.90;;;;;;4931664;29;20047;-71
2023/03/25 07:22:17;;;;;;;13.60;2.50;;;8.70;99.90;;;;;;4924007;29;20040;-71
2023/03/25 07:24:43;;;;;;;23.40;3.53;;;8.70;99.90;;;;;;4925352;29;20083;-69
2023/03/25 07:27:13;;;;;;;22.25;3.13;;;8.80;99.90;;;;;;4930516;29;20082;-70
2023/03/25 07:29:39;;;;;;;18.83;3.17;;;8.80;99.90;;;;;;4928686;29;20619;-70
2023/03/25 07:32:05;;;;;;;21.35;2.90;;;8.70;99.90;;;;;;4929082;29;20282;-70
2023/03/25 07:34:31;;;;;;;23.38;2.67;;;8.70;99.90;;;;;;4928523;29;20201;-70
2023/03/25 07:36:58;;;;;;;24.67;3.97;;;8.60;99.90;;;;;;4930272;29;20040;-69
2023/03/25 07:39:24;;;;;;;20.55;3.80;;;8.50;99.90;;;;;;4909978;29;20066;-69
2023/03/25 07:41:53;;;;;;;21.42;3.25;;;8.40;99.90;;;;;;4930665;29;20051;-68
2023/03/25 07:44:20;;;;;;;21.35;3.13;;;8.30;99.90;;;;;;4927325;29;20050;-69
2023/03/25 07:46:46;;;;;;;31.23;4.57;;;8.30;99.90;;;;;;4927669;29;20265;-69
2023/03/25 07:49:12;;;;;;;26.00;2.90;;;8.30;99.90;;;;;;4927327;29;20149;-69
2023/03/25 07:51:38;;;;;;;19.90;2.95;;;8.30;99.90;;;;;;4932057;29;20096;-69
2023/03/25 07:54:04;;;;;;;20.38;3.25;;;8.30;99.90;;;;;;4931568;29;20040;-69
2023/03/25 07:56:30;;;;;;;19.95;3.15;;;8.30;99.90;;;;;;4928333;29;20040;-69
2023/03/25 07:58:55;;;;;;;18.02;3.50;;;8.30;99.90;;;;;;4928319;29;20059;-70
2023/03/25 08:01:21;;;;;;;18.08;3.70;;;8.30;99.90;;;;;;4931008;29;20130;-70
2023/03/25 08:03:48;;;;;;;20.88;2.88;;;8.30;99.90;;;;;;4920426;29;20052;-70
2023/03/25 08:06:14;;;;;;;18.52;3.55;;;8.20;99.90;;;;;;4929769;29;20058;-70
2023/03/25 08:08:40;;;;;;;16.77;3.00;;;8.20;99.90;;;;;;4928008;29;20062;-70
2023/03/25 08:11:06;;;;;;;18.08;2.58;;;8.20;99.90;;;;;;4927759;29;20511;-71
2023/03/25 08:13:32;;;;;;;22.38;2.65;;;8.20;99.90;;;;;;4929827;29;20055;-69
2023/03/25 08:15:57;;;;;;;18.13;3.00;;;8.20;99.90;;;;;;4928504;29;20039;-70
2023/03/25 08:18:24;;;;;;;21.77;2.45;;;8.10;99.90;;;;;;4927719;29;20039;-69
2023/03/25 08:20:50;;;;;;;19.77;3.95;;;8.10;99.90;;;;;;4928869;29;20095;-69
2023/03/25 08:23:21;;;;;;;26.25;3.53;;;8.20;99.90;;;;;;4913493;29;20036;-70
2023/03/25 08:25:48;;;;;;;21.55;3.15;;;8.20;99.90;;;;;;4927139;29;20040;-69
2023/03/25 08:28:21;;;;;;;22.02;3.15;;;8.30;99.90;;;;;;4929841;29;20531;-70
2023/03/25 08:30:53;;;;;;;21.40;2.97;;;8.40;99.90;;;;;;4927338;29;20095;-69
2023/03/25 08:33:20;;;;;;;23.50;3.42;;;8.50;99.90;;;;;;4926103;29;20110;-69
2023/03/25 08:35:46;;;;;;;23.70;4.35;;;8.50;99.90;;;;;;4910924;29;20036;-70
2023/03/25 08:38:12;;;;;;;23.10;3.83;;;8.60;99.90;;;;;;4916043;29;20380;-70
2023/03/25 08:40:41;;;;;;;19.23;3.00;;;8.70;99.90;;;;;;4928811;29;20047;-70
2023/03/25 08:43:07;;;;;;;23.63;4.72;;;8.90;99.90;;;;;;4924743;29;20506;-70
2023/03/25 08:45:34;;;;;;;28.83;3.42;;;8.90;99.90;;;;;;4928554;29;20044;-69
2023/03/25 08:48:00;;;;;;;20.45;3.10;;;9.00;99.90;;;;;;4926695;29;20046;-69
2023/03/25 08:50:26;;;;;;;12.20;2.50;;;9.10;99.90;;;;;;4906597;29;20048;-70
2023/03/25 08:52:56;;;;;;;27.55;3.92;;;9.20;99.90;;;;;;4927150;29;20047;-70
2023/03/25 08:55:23;;;;;;;25.90;4.53;;;9.30;99.90;;;;;;4925156;29;20044;-70
2023/03/25 08:57:49;;;;;;;19.63;4.10;;;9.30;99.90;;;;;;4927887;29;20121;-70
2023/03/25 09:00:16;;;;;;;31.98;4.15;;;9.40;99.90;;;;;;4908860;29;20043;-70
2023/03/25 09:02:42;;;;;;;20.80;3.40;;;9.40;99.90;;;;;;4929564;29;20056;-69
2023/03/25 09:05:14;;;;;;;25.00;3.70;;;9.40;99.90;;;;;;4911521;29;20062;-69
2023/03/25 09:07:40;;;;;;;22.45;3.65;;;9.40;99.90;;;;;;4942560;29;20052;-69
2023/03/25 09:10:07;;;;;;;17.55;3.22;;;9.40;99.90;;;;;;4911469;29;20093;-69
2023/03/25 09:12:33;;;;;;;26.05;3.40;;;9.40;99.90;;;;;;4928298;29;20050;-69
2023/03/25 09:14:59;;;;;;;17.63;2.72;;;9.40;99.90;;;;;;4910399;29;20040;-69
2023/03/25 09:17:26;;;;;;;20.15;3.22;;;9.40;99.90;;;;;;4925309;29;20035;-69
2023/03/25 09:19:51;;;;;;;20.48;3.10;;;9.60;99.90;;;;;;4928618;29;20071;-68
2023/03/25 09:22:17;;;;;;;20.42;2.78;;;9.90;99.90;;;;;;4928205;29;20062;-69
2023/03/25 09:24:43;;;;;;;16.95;3.00;;;10.20;99.90;;;;;;4928548;29;20127;-70
2023/03/25 09:27:09;;;;;;;16.35;2.72;;;10.60;99.90;;;;;;4925305;29;20044;-69
2023/03/25 09:29:35;;;;;;;19.77;4.05;;;10.60;99.90;;;;;;4929695;29;20043;-69
2023/03/25 09:32:01;;;;;;;17.63;2.67;;;10.40;99.90;;;;;;4927448;29;20119;-70
2023/03/25 09:34:27;;;;;;;21.83;4.10;;;10.30;99.90;;;;;;4933496;29;20047;-68
2023/03/25 09:36:54;;;;;;;19.30;2.85;;;10.20;99.90;;;;;;4928172;29;20087;-70
2023/03/25 09:39:20;;;;;;;18.33;2.67;;;10.20;99.90;;;;;;4918686;29;20059;-69
2023/03/25 09:41:58;;;;;;;18.05;2.53;;;10.00;99.90;;;;;;4915656;29;20039;-69
2023/03/25 09:44:27;;;;;;;18.23;3.05;;;10.00;99.90;;;;;;4931582;29;20144;-71
2023/03/25 09:46:54;;;;;;;15.35;1.92;;;9.80;99.90;;;;;;4930148;29;20054;-71
2023/03/25 09:49:25;;;;;;;17.27;3.17;;;9.70;99.90;;;;;;4930020;29;20211;-70
2023/03/25 09:51:53;;;;;;;17.40;3.17;;;9.70;99.90;;;;;;4933801;29;20059;-69
2023/03/25 09:54:31;;;;;;;16.60;2.90;;;9.80;99.90;;;;;;4929928;29;20042;-70
2023/03/25 09:57:13;;;;;;;19.80;2.53;;;9.90;99.90;;;;;;4933684;29;20126;-70
2023/03/25 09:59:48;;;;;;;16.15;2.20;;;9.90;99.90;;;;;;4932312;29;20055;-69
2023/03/25 10:02:29;;;;;;;16.13;2.20;;;10.00;99.90;;;;;;4930196;29;20407;-70
2023/03/25 10:05:17;;;;;;;16.45;3.15;;;10.50;99.90;;;;;;4933050;29;20079;-69
2023/03/25 10:07:58;;;;;;;12.32;2.30;;;10.70;99.90;;;;;;4930855;29;20051;-70
2023/03/25 10:10:40;;;;;;;16.98;2.92;;;10.60;99.90;;;;;;4909645;29;20126;-69
2023/03/25 10:13:41;;;;;;;18.83;2.95;;;10.50;99.90;;;;;;4926467;29;20039;-68
2023/03/25 10:16:35;;;;;;;21.98;3.17;;;10.80;99.90;;;;;;4923243;29;20054;-69
2023/03/25 10:19:17;;;;;;;17.92;2.85;;;10.80;99.90;;;;;;4911370;29;20042;-68
2023/03/25 10:21:54;;;;;;;12.40;2.05;;;10.70;99.90;;;;;;4927940;29;20078;-69
2023/03/25 10:24:26;;;;;;;12.82;2.05;;;10.60;99.90;;;;;;4931921;29;20074;-68
2023/03/25 10:27:00;;;;;;;17.27;2.55;;;10.50;99.90;;;;;;4909057;29;20767;-68
2023/03/25 10:29:50;;;;;;;14.50;2.63;;;10.40;99.90;;;;;;4930975;29;20117;-69
2023/03/25 10:32:40;;;;;;;15.98;3.03;;;10.30;99.90;;;;;;4931525;29;20122;-69
2023/03/25 10:35:22;;;;;;;16.80;3.05;;;10.10;99.90;;;;;;4932781;29;20408;-69
2023/03/25 10:37:51;;;;;;;16.38;2.63;;;10.00;99.90;;;;;;4928558;29;20130;-69
2023/03/25 10:40:28;;;;;;;12.40;2.80;;;9.90;99.90;;;;;;4932023;29;20051;-69
2023/03/25 10:43:26;;;;;;;16.15;2.67;;;9.90;99.90;;;;;;4923455;29;20416;-68
2023/03/25 10:46:00;;;;;;;18.02;2.70;;;10.00;99.90;;;;;;4931900;29;20048;-68
2023/03/25 10:48:31;;;;;;;17.83;2.95;;;10.10;99.90;;;;;;4929689;29;20047;-69
2023/03/25 10:51:10;;;;;;;18.05;2.88;;;10.30;99.90;;;;;;4930565;29;20054;-68
2023/03/25 10:53:38;;;;;;;13.95;2.88;;;10.50;99.90;;;;;;4925935;29;20046;-68
2023/03/25 10:56:12;;;;;;;15.68;2.20;;;11.00;99.90;;;;;;4931049;29;20455;-68
2023/03/25 10:58:39;;;;;;;19.17;2.67;;;11.40;99.90;;;;;;4919943;29;20048;-69
2023/03/25 11:01:17;;;;;;;10.93;1.70;;;11.30;99.90;;;;;;4926814;29;20408;-69
2023/03/25 11:03:46;;;;;;;19.40;2.92;;;11.10;99.90;;;;;;4928507;29;20083;-68
2023/03/25 11:06:44;;;;;;;18.63;2.95;;;11.10;99.90;;;;;;4931942;29;20512;-68
2023/03/25 11:09:24;;;;;;;18.50;2.75;;;11.10;99.90;;;;;;4914296;29;20055;-68
2023/03/25 11:11:52;;;;;;;18.38;2.92;;;11.00;99.90;;;;;;4931391;29;20047;-69
2023/03/25 11:14:26;;;;;;;14.45;2.42;;;10.90;99.90;;;;;;4905306;29;20447;-68
2023/03/25 11:17:08;;;;;;;16.35;2.55;;;10.80;99.90;;;;;;4930530;29;20077;-69
2023/03/25 11:19:51;;;;;;;18.63;3.00;;;10.70;99.90;;;;;;4926627;29;20064;-69
2023/03/25 11:22:33;;;;;;;16.20;2.90;;;10.60;99.90;;;;;;4927998;29;20400;-70
2023/03/25 11:25:24;;;;;;;17.77;3.00;;;10.60;99.90;;;;;;4931059;29;20051;-69
2023/03/25 11:28:08;;;;;;;17.67;3.03;;;10.60;99.90;;;;;;4923932;29;20172;-69
2023/03/25 11:30:33;;;;;;;15.05;2.75;;;10.60;99.90;;;;;;4929536;29;20431;-69
2023/03/25 11:33:04;;;;;;;14.90;2.85;;;10.70;99.90;;;;;;4930391;29;20040;-69
2023/03/25 11:35:35;;;;;;;14.13;2.90;;;10.90;99.90;;;;;;4926028;29;20160;-68
2023/03/25 11:38:18;;;;;;;16.58;3.03;;;11.30;99.90;;;;;;4928229;29;20055;-69
2023/03/25 11:40:54;;;;;;;12.05;2.40;;;11.40;99.90;;;;;;4929177;29;20105;-69
2023/03/25 11:43:22;;;;;;;13.90;2.53;;;11.40;99.90;;;;;;4926396;29;20159;-69
2023/03/25 11:45:48;;;;;;;15.27;2.78;;;11.20;99.90;;;;;;4929995;29;20357;-70
2023/03/25 11:48:22;;;;;;;15.57;2.70;;;11.10;99.90;;;;;;4930442;29;20047;-70
2023/03/25 11:50:55;;;;;;;12.13;2.30;;;11.10;99.90;;;;;;4929886;29;20048;-69
2023/03/25 11:53:23;;;;;;;14.35;2.38;;;11.00;99.90;;;;;;4924195;29;20036;-68
2023/03/25 11:55:53;;;;;;;13.13;2.05;;;11.00;99.90;;;;;;4930072;29;20039;-67
2023/03/25 11:58:21;;;;;;;14.75;2.55;;;11.10;99.90;;;;;;4928081;29;20066;-66
2023/03/25 12:00:49;;;;;;;11.02;2.03;;;11.20;99.90;;;;;;4929895;29;20494;-67
2023/03/25 12:03:21;;;;;;;14.00;2.42;;;11.20;99.90;;;;;;4901984;29;20044;-66
2023/03/25 12:06:19;;;;;;;13.60;2.20;;;11.20;99.90;;;;;;4931792;29;20039;-68
2023/03/25 12:08:52;;;;;;;13.20;2.30;;;11.30;99.90;;;;;;4926077;29;20495;-66
2023/03/25 12:11:26;;;;;;;16.35;2.17;;;11.60;99.90;;;;;;4930828;29;20143;-67
2023/03/25 12:14:13;;;;;;;14.20;2.22;;;11.50;99.90;;;;;;4927030;29;20043;-67
2023/03/25 12:16:44;;;;;;;10.43;2.38;;;11.40;99.90;;;;;;4930051;29;20131;-67
2023/03/25 12:19:15;;;;;;;13.05;2.08;;;11.30;99.90;;;;;;4926487;29;20055;-67
2023/03/25 12:22:03;;;;;;;14.82;2.90;;;11.20;99.90;;;;;;4928267;29;20054;-67
2023/03/25 12:24:47;;;;;;;11.82;2.47;;;11.10;99.90;;;;;;4927682;29;20085;-67
2023/03/25 12:27:35;;;;;;;10.75;2.10;;;11.00;99.90;;;;;;4927280;29;20048;-68
2023/03/25 12:30:26;;;;;;;16.85;1.95;;;10.90;99.90;;;;;;4923595;29;20164;-68
2023/03/25 12:32:51;;;;;;;18.90;3.05;;;11.10;99.90;;;;;;4908723;29;20039;-67
2023/03/25 12:35:58;;;;;;;13.13;2.35;;;11.60;99.90;;;;;;4928902;29;20455;-68
2023/03/25 12:38:39;;;;;;;10.57;2.10;;;12.10;99.90;;;;;;4915228;29;20044;-68
2023/03/25 12:41:22;;;;;;;9.68;2.03;;;12.70;99.90;;;;;;4929968;29;20114;-68
2023/03/25 12:43:58;;;;;;;9.63;2.40;;;13.20;99.90;;;;;;4928265;29;20091;-68
2023/03/25 12:47:16;;;;;;;13.93;2.63;;;13.40;99.90;;;;;;4928273;29;20040;-68
2023/03/25 12:49:57;;;;;;;12.70;2.08;;;13.00;99.90;;;;;;4914397;29;20396;-68
2023/03/25 12:52:37;;;;;;;15.93;2.58;;;12.50;99.90;;;;;;4931326;29;20110;-67
2023/03/25 12:55:55;;;;;;;12.05;1.88;;;12.20;99.90;;;;;;4928726;29;20039;-67
2023/03/25 12:58:26;;;;;;;10.30;2.28;;;11.90;99.90;;;;;;4907422;29;20081;-68
2023/03/25 13:01:03;;;;;;;10.77;1.88;;;11.70;99.90;;;;;;4924169;29;20058;-67
2023/03/25 13:03:58;;;;;;;13.27;2.10;;;11.50;99.90;;;;;;4909338;29;20111;-68
2023/03/25 13:06:57;;;;;;;13.47;2.37;;;11.70;99.90;;;;;;4932007;29;20048;-68
2023/03/25 13:09:45;;;;;;;14.13;2.63;;;11.90;99.90;;;;;;4928193;29;20071;-68
2023/03/25 13:12:37;;;;;;;13.20;1.98;;;12.70;99.90;;;;;;4923682;29;20043;-67